OINR  Ramsar Airport

Add Bookmark

Iran

Status IATA
Operational RZR
Latitude Longitude
36° 54' 35" N 50° 40' 46" E
36.909901 50.679600
Local (DST + 5) UTC (GMT + 4)
Dec 21, 2014 03:58 Dec 21, 2014 00:28
Sunrise-Sunset Local UTC
Begin Civil Twilight 06:46 03:16
Sunrise 07:15 03:45
Sunset 04:55 13:25
End Civil Twilight 05:24 13:54

Current Weather

METAR Observed VFR
OINR 210000Z 24004KT 9999 FEW023CB SCT027 BKN100 10/08 Q1018 Sun, Dec 21, 2014 @ 00:00 UTC
(28 Minutes ago)
Visual Flight Rules
Wind Visibility Clouds Conditions
240° at 4 knots (7 kph) 10 km or more
  • Few at 2,300' AGL
  • Scattered at 2,700' AGL
  • Broken at 10,000' AGL
  • No significant weather
Temperatures Readings Precipitation
Current Temp 10°C (50°F)
Dewpoint 8°C (46°F)
Humidity 88%
Altimeter 30.06"Hg
Sea Level Pressure 1018mb
None Recorded

Additional weather within a 92.6km radius of OINR

Map ICAO Location
OINN 75km E (111°)

24 Hour Weather History

Loading
-

24 Hour Weather Graphs

Loading
-

CheckWX.com is intended as a tool to help pilots better visualize weather data. It is not intended as a substitute for an official weather briefing obtained from a Flight Service Station. CheckWX.com does not meet the FAA requirements for an official pre-flight weather briefing. Therefore, it's important that pilots still call and obtain an official FSS pre-flight weather briefing.